Time;durP1;ratioP1;P1;durP2;ratioP2;P2;SDS_P1;SDS_P2;PMS_P1;PMS_P2;Temp;Humidity;BMP_temperature;BMP_pressure;BME280_temperature;BME280_humidity;BME280_pressure;Samples;Min_cycle;Max_cycle;Signal;HPM_P1;HPM_P2
2024/01/01 00:01:56;;;;;;;4.07;3.15;;;;;;;;;;5031674;28;20598;-66
2024/01/01 00:04:24;;;;;;;3.80;3.30;;;;;;;;;;5031727;28;20290;-66
2024/01/01 00:06:50;;;;;;;3.65;3.08;;;;;;;;;;5031542;28;20025;-66
2024/01/01 00:09:16;;;;;;;3.65;3.20;;;;;;;;;;5031586;28;20028;-66
2024/01/01 00:11:42;;;;;;;4.35;3.78;;;;;;;;;;5031688;28;20030;-66
2024/01/01 00:14:08;;;;;;;4.13;3.60;;;;;;;;;;5031426;28;20041;-66
2024/01/01 00:16:34;;;;;;;4.30;3.70;;;;;;;;;;5031278;28;20108;-66
2024/01/01 00:19:00;;;;;;;4.80;3.80;;;;;;;;;;5031440;28;20457;-66
2024/01/01 00:21:27;;;;;;;4.20;3.75;;;;;;;;;;5031075;28;20029;-66
2024/01/01 00:23:53;;;;;;;5.03;3.70;;;;;;;;;;5029952;28;20021;-65
2024/01/01 00:26:19;;;;;;;4.80;4.13;;;;;;;;;;5031018;28;20094;-66
2024/01/01 00:28:45;;;;;;;4.22;3.60;;;;;;;;;;5031224;28;20120;-66
2024/01/01 00:31:11;;;;;;;4.40;3.85;;;;;;;;;;5029379;28;20021;-66
2024/01/01 00:33:37;;;;;;;4.85;4.22;;;;;;;;;;5031091;28;20029;-66
2024/01/01 00:36:03;;;;;;;4.82;4.25;;;;;;;;;;5029624;28;20104;-66
2024/01/01 00:38:29;;;;;;;4.72;4.13;;;;;;;;;;5030934;28;20022;-66
2024/01/01 00:40:55;;;;;;;4.97;4.18;;;;;;;;;;5030744;28;20034;-66
2024/01/01 00:43:21;;;;;;;5.15;4.20;;;;;;;;;;5030850;28;20336;-66
2024/01/01 00:45:47;;;;;;;4.75;4.05;;;;;;;;;;5031029;28;20076;-66
2024/01/01 00:48:13;;;;;;;5.45;4.78;;;;;;;;;;5031082;28;20022;-66
2024/01/01 00:50:39;;;;;;;5.72;4.38;;;;;;;;;;5030454;28;20442;-66
2024/01/01 00:53:05;;;;;;;5.65;4.60;;;;;;;;;;5029240;28;20033;-66
2024/01/01 00:55:31;;;;;;;4.78;4.20;;;;;;;;;;5030613;28;20033;-66
2024/01/01 00:57:57;;;;;;;5.47;4.10;;;;;;;;;;5030664;28;20406;-66
2024/01/01 01:00:23;;;;;;;5.82;4.30;;;;;;;;;;5030154;28;20057;-66
2024/01/01 01:02:49;;;;;;;4.57;4.10;;;;;;;;;;5030568;28;20519;-66
2024/01/01 01:05:15;;;;;;;5.18;4.18;;;;;;;;;;5030379;28;20030;-66
2024/01/01 01:07:41;;;;;;;5.80;4.63;;;;;;;;;;5030745;28;20026;-66
2024/01/01 01:10:07;;;;;;;5.55;4.40;;;;;;;;;;5030324;28;20671;-66
2024/01/01 01:12:33;;;;;;;4.57;3.92;;;;;;;;;;5030543;28;20541;-66
2024/01/01 01:14:59;;;;;;;5.45;4.93;;;;;;;;;;5030082;28;20025;-66
2024/01/01 01:17:25;;;;;;;5.15;4.65;;;;;;;;;;5028770;28;20026;-66
2024/01/01 01:19:52;;;;;;;5.43;4.60;;;;;;;;;;5030093;28;20037;-66
2024/01/01 01:22:18;;;;;;;5.65;4.35;;;;;;;;;;5030664;28;20494;-66
2024/01/01 01:24:44;;;;;;;5.15;4.25;;;;;;;;;;5030353;28;20083;-66
2024/01/01 01:27:10;;;;;;;6.47;5.15;;;;;;;;;;5030237;28;20101;-66
2024/01/01 01:29:36;;;;;;;6.60;4.70;;;;;;;;;;5030211;28;20616;-65
2024/01/01 01:32:02;;;;;;;5.35;4.55;;;;;;;;;;5030644;28;20034;-66
2024/01/01 01:34:28;;;;;;;5.22;4.35;;;;;;;;;;5030279;28;20036;-66
2024/01/01 01:36:54;;;;;;;4.80;4.20;;;;;;;;;;5030157;28;20390;-66
2024/01/01 01:39:20;;;;;;;5.05;4.30;;;;;;;;;;5030042;28;20030;-66
2024/01/01 01:41:47;;;;;;;5.97;4.50;;;;;;;;;;5029838;28;20025;-66
2024/01/01 01:44:13;;;;;;;6.22;4.97;;;;;;;;;;5030037;28;20138;-66
2024/01/01 01:46:41;;;;;;;5.45;4.95;;;;;;;;;;5029953;28;20110;-66
2024/01/01 01:49:07;;;;;;;4.57;4.18;;;;;;;;;;5030179;28;20018;-66
2024/01/01 01:51:33;;;;;;;5.57;4.60;;;;;;;;;;5029680;28;20394;-66
2024/01/01 01:54:00;;;;;;;5.30;4.68;;;;;;;;;;5028702;28;20072;-66
2024/01/01 01:56:27;;;;;;;5.55;4.72;;;;;;;;;;5029816;28;20033;-65
2024/01/01 01:58:53;;;;;;;5.53;4.50;;;;;;;;;;5030028;28;20028;-66
2024/01/01 02:01:19;;;;;;;5.65;4.60;;;;;;;;;;5028238;28;20032;-66
2024/01/01 02:03:45;;;;;;;5.03;4.47;;;;;;;;;;5029742;28;20105;-66
2024/01/01 02:06:11;;;;;;;6.20;4.82;;;;;;;;;;5029715;28;20021;-66
2024/01/01 02:08:37;;;;;;;6.00;4.88;;;;;;;;;;5029630;28;20111;-66
2024/01/01 02:11:03;;;;;;;5.90;4.85;;;;;;;;;;5029587;28;20479;-65
2024/01/01 02:13:30;;;;;;;6.00;4.90;;;;;;;;;;5029790;28;20511;-65
2024/01/01 02:15:56;;;;;;;5.47;4.20;;;;;;;;;;5029560;28;20033;-66
2024/01/01 02:18:25;;;;;;;5.40;4.82;;;;;;;;;;5029501;28;20044;-66
2024/01/01 02:20:51;;;;;;;5.72;4.72;;;;;;;;;;5029533;28;20022;-66
2024/01/01 02:23:18;;;;;;;5.63;4.30;;;;;;;;;;5029423;28;20417;-66
2024/01/01 02:25:44;;;;;;;5.63;4.63;;;;;;;;;;5029505;28;20037;-66
2024/01/01 02:28:10;;;;;;;6.10;5.43;;;;;;;;;;5032500;28;20026;-66
2024/01/01 02:30:36;;;;;;;5.07;4.57;;;;;;;;;;5032952;28;20458;-66
2024/01/01 02:33:07;;;;;;;6.03;5.22;;;;;;;;;;5032893;28;20463;-66
2024/01/01 02:35:33;;;;;;;5.90;5.03;;;;;;;;;;5033243;28;20108;-66
2024/01/01 02:37:59;;;;;;;5.97;4.65;;;;;;;;;;5033087;28;20268;-65
2024/01/01 02:40:25;;;;;;;5.88;4.70;;;;;;;;;;5032946;28;20056;-66
2024/01/01 02:42:51;;;;;;;7.18;5.18;;;;;;;;;;5032866;28;20022;-66
2024/01/01 02:45:20;;;;;;;5.70;4.38;;;;;;;;;;5032915;28;20413;-66
2024/01/01 02:47:46;;;;;;;5.07;4.43;;;;;;;;;;5032937;28;20048;-66
2024/01/01 02:50:12;;;;;;;5.72;4.80;;;;;;;;;;5032539;28;20577;-66
2024/01/01 02:52:38;;;;;;;6.68;5.10;;;;;;;;;;5032778;28;20030;-66
2024/01/01 02:55:04;;;;;;;5.72;4.80;;;;;;;;;;5032937;28;20098;-66
2024/01/01 02:57:30;;;;;;;6.35;4.85;;;;;;;;;;5032581;28;20169;-66
2024/01/01 02:59:56;;;;;;;5.53;4.80;;;;;;;;;;5032429;28;20057;-66
2024/01/01 03:02:22;;;;;;;5.15;4.65;;;;;;;;;;5032416;28;20032;-66
2024/01/01 03:04:49;;;;;;;5.10;4.53;;;;;;;;;;5032409;28;20022;-66
2024/01/01 03:07:15;;;;;;;6.03;4.82;;;;;;;;;;5030897;28;20557;-66
2024/01/01 03:09:41;;;;;;;5.95;4.93;;;;;;;;;;5032682;28;20025;-66
2024/01/01 03:12:07;;;;;;;6.43;4.80;;;;;;;;;;5032646;28;20087;-66
2024/01/01 03:14:33;;;;;;;5.70;5.00;;;;;;;;;;5032239;28;20037;-66
2024/01/01 03:16:59;;;;;;;5.35;4.68;;;;;;;;;;5032132;28;20033;-66
2024/01/01 03:19:25;;;;;;;5.18;4.53;;;;;;;;;;5032139;28;20037;-65
2024/01/01 03:21:51;;;;;;;6.20;4.70;;;;;;;;;;5032090;28;20522;-66
2024/01/01 03:24:16;;;;;;;5.80;5.03;;;;;;;;;;5032388;28;20030;-65
2024/01/01 03:26:42;;;;;;;5.55;4.70;;;;;;;;;;5032217;28;20047;-66
2024/01/01 03:29:09;;;;;;;4.68;4.15;;;;;;;;;;5032018;28;20100;-66
2024/01/01 03:31:34;;;;;;;5.57;4.68;;;;;;;;;;5031114;28;20033;-66
2024/01/01 03:34:00;;;;;;;5.43;4.60;;;;;;;;;;5032123;28;20367;-66
2024/01/01 03:36:26;;;;;;;5.18;4.63;;;;;;;;;;5031966;28;20108;-66
2024/01/01 03:38:52;;;;;;;5.93;4.72;;;;;;;;;;5031346;28;20109;-66
2024/01/01 03:41:18;;;;;;;5.70;4.53;;;;;;;;;;5031827;28;20033;-66
2024/01/01 03:43:44;;;;;;;5.90;4.82;;;;;;;;;;5032302;28;20025;-66
2024/01/01 03:46:10;;;;;;;5.57;4.50;;;;;;;;;;5031974;28;20048;-66
2024/01/01 03:48:36;;;;;;;5.15;4.45;;;;;;;;;;5031626;28;20049;-66
2024/01/01 03:51:02;;;;;;;5.07;4.50;;;;;;;;;;5031389;28;20105;-66
2024/01/01 03:53:28;;;;;;;4.80;4.30;;;;;;;;;;5031940;28;20036;-66
2024/01/01 03:55:54;;;;;;;5.20;4.70;;;;;;;;;;5031491;28;20479;-66
2024/01/01 03:58:20;;;;;;;5.05;4.32;;;;;;;;;;5031587;28;20021;-65
2024/01/01 04:00:46;;;;;;;5.70;5.10;;;;;;;;;;5031134;28;20533;-66
2024/01/01 04:03:12;;;;;;;6.10;4.18;;;;;;;;;;5031569;28;20112;-66
2024/01/01 04:05:38;;;;;;;5.60;4.88;;;;;;;;;;5031593;28;20053;-66
2024/01/01 04:08:05;;;;;;;5.30;4.35;;;;;;;;;;5031199;28;20502;-66
2024/01/01 04:10:31;;;;;;;4.20;3.80;;;;;;;;;;5031422;28;20029;-65
2024/01/01 04:12:57;;;;;;;5.35;4.50;;;;;;;;;;5031380;28;20371;-65
2024/01/01 04:15:23;;;;;;;5.30;4.10;;;;;;;;;;5031298;28;20048;-65
2024/01/01 04:17:49;;;;;;;4.07;3.67;;;;;;;;;;5031415;28;20024;-66
2024/01/01 04:20:15;;;;;;;5.72;5.00;;;;;;;;;;5029552;28;20124;-66
2024/01/01 04:22:41;;;;;;;4.95;4.40;;;;;;;;;;5031198;28;20052;-66
2024/01/01 04:25:07;;;;;;;4.55;3.75;;;;;;;;;;5031209;28;20025;-65
2024/01/01 04:27:34;;;;;;;4.75;4.22;;;;;;;;;;5030998;28;20048;-65
2024/01/01 04:30:00;;;;;;;5.20;4.35;;;;;;;;;;5030948;28;20025;-66
2024/01/01 04:32:26;;;;;;;5.15;4.53;;;;;;;;;;5031080;28;20177;-66
2024/01/01 04:34:53;;;;;;;4.82;3.97;;;;;;;;;;5031174;28;20104;-65
2024/01/01 04:37:18;;;;;;;5.85;4.40;;;;;;;;;;5031018;28;20025;-65
2024/01/01 04:39:44;;;;;;;4.40;4.00;;;;;;;;;;5030715;28;20021;-65
2024/01/01 04:42:10;;;;;;;4.32;3.92;;;;;;;;;;5027768;28;20112;-65
2024/01/01 04:44:36;;;;;;;5.00;3.72;;;;;;;;;;5030888;28;20060;-66
2024/01/01 04:47:02;;;;;;;3.90;3.50;;;;;;;;;;5030822;28;20594;-66
2024/01/01 04:49:29;;;;;;;6.05;3.97;;;;;;;;;;5030392;28;20112;-65
2024/01/01 04:51:55;;;;;;;4.43;3.88;;;;;;;;;;5030026;28;20026;-66
2024/01/01 04:54:21;;;;;;;4.32;3.63;;;;;;;;;;5030544;28;20041;-66
2024/01/01 04:56:47;;;;;;;4.95;3.78;;;;;;;;;;5029396;28;20431;-65
2024/01/01 04:59:14;;;;;;;4.55;3.60;;;;;;;;;;5030641;28;20087;-66
2024/01/01 05:01:40;;;;;;;4.63;4.00;;;;;;;;;;5030504;28;20045;-65
2024/01/01 05:04:05;;;;;;;4.65;3.78;;;;;;;;;;5030717;28;20017;-66
2024/01/01 05:06:31;;;;;;;6.78;4.30;;;;;;;;;;5030295;28;20030;-66
2024/01/01 05:08:57;;;;;;;4.22;3.78;;;;;;;;;;5030474;28;20060;-66
2024/01/01 05:11:23;;;;;;;4.13;3.70;;;;;;;;;;5030319;28;20029;-66
2024/01/01 05:13:49;;;;;;;4.07;3.53;;;;;;;;;;5033542;28;20029;-65
2024/01/01 05:16:15;;;;;;;4.05;3.53;;;;;;;;;;5035274;28;20036;-65
2024/01/01 05:18:41;;;;;;;3.90;3.50;;;;;;;;;;5034779;28;20553;-66
2024/01/01 05:21:08;;;;;;;4.10;3.50;;;;;;;;;;5034776;28;20033;-66
2024/01/01 05:23:34;;;;;;;3.75;3.40;;;;;;;;;;5034087;28;20043;-66
2024/01/01 05:26:00;;;;;;;3.33;3.03;;;;;;;;;;5034926;28;20048;-66
2024/01/01 05:28:26;;;;;;;3.40;3.10;;;;;;;;;;5030662;28;20445;-65
2024/01/01 05:30:52;;;;;;;4.32;3.60;;;;;;;;;;5029992;28;20033;-65
2024/01/01 05:33:19;;;;;;;4.20;3.22;;;;;;;;;;5030141;28;20200;-66
2024/01/01 05:35:45;;;;;;;3.95;3.50;;;;;;;;;;5030138;28;20036;-66
2024/01/01 05:38:11;;;;;;;3.88;3.00;;;;;;;;;;5029980;28;20022;-66
2024/01/01 05:40:38;;;;;;;4.05;3.40;;;;;;;;;;5029712;28;20038;-66
2024/01/01 05:43:04;;;;;;;3.90;3.50;;;;;;;;;;5030083;28;20036;-65
2024/01/01 05:45:30;;;;;;;4.40;3.63;;;;;;;;;;5029803;28;20355;-66
2024/01/01 05:47:57;;;;;;;3.83;3.45;;;;;;;;;;5029903;28;20037;-66
2024/01/01 05:50:23;;;;;;;3.30;3.00;;;;;;;;;;5029791;28;20518;-65
2024/01/01 05:52:49;;;;;;;3.58;3.28;;;;;;;;;;5029860;28;20017;-66
2024/01/01 05:55:15;;;;;;;4.93;3.55;;;;;;;;;;5029870;28;20029;-65
2024/01/01 05:57:41;;;;;;;3.58;3.28;;;;;;;;;;5029895;28;20441;-66
2024/01/01 06:00:08;;;;;;;3.10;2.88;;;;;;;;;;5029771;28;20142;-66
2024/01/01 06:02:34;;;;;;;3.28;2.97;;;;;;;;;;5030481;28;20112;-65
2024/01/01 06:05:00;;;;;;;3.63;3.15;;;;;;;;;;5033622;28;20021;-64
2024/01/01 06:07:26;;;;;;;3.70;3.33;;;;;;;;;;5033112;28;20037;-64
2024/01/01 06:09:52;;;;;;;3.42;3.13;;;;;;;;;;5033067;28;20044;-64
2024/01/01 06:12:18;;;;;;;3.83;3.08;;;;;;;;;;5033448;28;20041;-64
2024/01/01 06:14:45;;;;;;;3.28;2.90;;;;;;;;;;5033471;28;20404;-64
2024/01/01 06:17:11;;;;;;;3.10;2.80;;;;;;;;;;5033085;28;20034;-64
2024/01/01 06:19:37;;;;;;;3.38;3.03;;;;;;;;;;5033039;28;20040;-64
2024/01/01 06:22:03;;;;;;;3.70;3.20;;;;;;;;;;5032984;28;20034;-64
2024/01/01 06:24:29;;;;;;;3.13;2.83;;;;;;;;;;5033107;28;20025;-64
2024/01/01 06:26:55;;;;;;;2.92;2.67;;;;;;;;;;5031694;28;20023;-64
2024/01/01 06:29:23;;;;;;;3.45;3.08;;;;;;;;;;5032938;28;20021;-64
2024/01/01 06:31:50;;;;;;;2.90;2.65;;;;;;;;;;5032940;28;20025;-64
2024/01/01 06:34:16;;;;;;;3.03;2.58;;;;;;;;;;5032999;28;20374;-64
2024/01/01 06:36:42;;;;;;;3.30;2.95;;;;;;;;;;5031360;28;20021;-64
2024/01/01 06:39:08;;;;;;;2.88;2.67;;;;;;;;;;5032882;28;20028;-64
2024/01/01 06:41:34;;;;;;;2.40;2.20;;;;;;;;;;5032498;28;20029;-64
2024/01/01 06:44:00;;;;;;;2.80;2.60;;;;;;;;;;5032930;28;20445;-64
2024/01/01 06:46:26;;;;;;;2.60;2.40;;;;;;;;;;5032948;28;20026;-64
2024/01/01 06:48:52;;;;;;;2.83;2.63;;;;;;;;;;5032877;28;20392;-64
2024/01/01 06:51:18;;;;;;;3.28;2.97;;;;;;;;;;5032355;28;20032;-64
2024/01/01 06:53:44;;;;;;;3.22;2.85;;;;;;;;;;5032874;28;20026;-65
2024/01/01 06:56:10;;;;;;;3.75;2.90;;;;;;;;;;5032550;28;20033;-65
2024/01/01 06:58:36;;;;;;;3.13;2.83;;;;;;;;;;5032708;28;20103;-65
2024/01/01 07:01:02;;;;;;;3.28;2.92;;;;;;;;;;5032604;28;20104;-65
2024/01/01 07:03:29;;;;;;;2.38;2.10;;;;;;;;;;5032723;28;20026;-65
2024/01/01 07:05:55;;;;;;;2.97;2.70;;;;;;;;;;5033156;28;20337;-65
2024/01/01 07:08:23;;;;;;;3.10;2.30;;;;;;;;;;5032380;28;20025;-65
2024/01/01 07:10:49;;;;;;;3.10;2.63;;;;;;;;;;5032863;28;20489;-65
2024/01/01 07:13:15;;;;;;;2.88;2.33;;;;;;;;;;5031624;28;20025;-65
2024/01/01 07:15:41;;;;;;;3.00;2.33;;;;;;;;;;5032600;28;20029;-65
2024/01/01 07:18:07;;;;;;;2.85;2.42;;;;;;;;;;5032398;28;20505;-65
2024/01/01 07:20:33;;;;;;;3.10;2.78;;;;;;;;;;5032235;28;20037;-65
2024/01/01 07:23:00;;;;;;;2.50;2.25;;;;;;;;;;5030978;28;20470;-65
2024/01/01 07:25:26;;;;;;;3.40;2.67;;;;;;;;;;5032227;28;20491;-65
2024/01/01 07:27:53;;;;;;;3.05;2.58;;;;;;;;;;5032338;28;20049;-65
2024/01/01 07:30:19;;;;;;;2.30;2.10;;;;;;;;;;5032248;28;20479;-65
2024/01/01 07:32:46;;;;;;;2.70;2.50;;;;;;;;;;5031255;28;20030;-65
2024/01/01 07:35:12;;;;;;;2.08;1.90;;;;;;;;;;5032385;28;20018;-65
2024/01/01 07:37:38;;;;;;;2.65;2.45;;;;;;;;;;5032095;28;20136;-65
2024/01/01 07:40:04;;;;;;;3.33;2.60;;;;;;;;;;5032116;28;20449;-65
2024/01/01 07:42:31;;;;;;;2.60;2.40;;;;;;;;;;5031744;28;20457;-65
2024/01/01 07:44:57;;;;;;;2.88;2.30;;;;;;;;;;5032066;28;20057;-66
2024/01/01 07:47:23;;;;;;;1.95;1.77;;;;;;;;;;5031966;28;20364;-66
2024/01/01 07:49:49;;;;;;;2.05;1.85;;;;;;;;;;5031440;28;20108;-66
2024/01/01 07:52:16;;;;;;;2.28;2.08;;;;;;;;;;5031598;28;20053;-66
2024/01/01 07:54:41;;;;;;;2.65;2.15;;;;;;;;;;5031873;28;20024;-65
2024/01/01 07:57:08;;;;;;;2.38;2.17;;;;;;;;;;5031403;28;20037;-65
2024/01/01 07:59:34;;;;;;;2.45;2.25;;;;;;;;;;5031245;28;20021;-65
2024/01/01 08:02:00;;;;;;;2.78;2.40;;;;;;;;;;5031365;28;20033;-65
2024/01/01 08:04:26;;;;;;;2.50;2.30;;;;;;;;;;5031413;28;20083;-65
2024/01/01 08:06:52;;;;;;;1.90;1.75;;;;;;;;;;5031052;28;20060;-65
2024/01/01 08:09:18;;;;;;;2.30;2.10;;;;;;;;;;5031423;28;20028;-65
2024/01/01 08:11:44;;;;;;;2.22;2.03;;;;;;;;;;5031237;28;20034;-65
2024/01/01 08:14:10;;;;;;;2.35;2.15;;;;;;;;;;5030993;28;20034;-65
2024/01/01 08:16:36;;;;;;;2.22;2.03;;;;;;;;;;5031079;28;20117;-65
2024/01/01 08:19:03;;;;;;;2.55;2.05;;;;;;;;;;5031071;28;20029;-65
2024/01/01 08:21:29;;;;;;;2.65;1.90;;;;;;;;;;5030678;28;20491;-65
2024/01/01 08:23:55;;;;;;;2.60;2.05;;;;;;;;;;5030863;28;20466;-65
2024/01/01 08:26:21;;;;;;;2.42;2.22;;;;;;;;;;5030670;28;20026;-65
2024/01/01 08:28:51;;;;;;;1.73;1.63;;;;;;;;;;5030872;28;20026;-65
2024/01/01 08:31:18;;;;;;;2.30;2.10;;;;;;;;;;5031080;28;20033;-65
2024/01/01 08:33:44;;;;;;;2.53;2.15;;;;;;;;;;5030964;28;20100;-65
2024/01/01 08:36:10;;;;;;;2.50;2.10;;;;;;;;;;5031350;28;20502;-66
2024/01/01 08:38:36;;;;;;;2.25;1.70;;;;;;;;;;5031948;28;20030;-65
2024/01/01 08:41:02;;;;;;;2.22;2.00;;;;;;;;;;5032459;28;20048;-65
2024/01/01 08:43:28;;;;;;;2.88;2.42;;;;;;;;;;5033130;28;20414;-65
2024/01/01 08:45:54;;;;;;;2.40;2.20;;;;;;;;;;5035052;28;20087;-66
2024/01/01 08:48:20;;;;;;;1.88;1.77;;;;;;;;;;5038566;28;20420;-65
2024/01/01 08:50:46;;;;;;;2.47;2.15;;;;;;;;;;5044377;28;20029;-65
2024/01/01 08:53:12;;;;;;;2.30;1.80;;;;;;;;;;5034845;28;20079;-65
2024/01/01 08:55:38;;;;;;;2.30;2.10;;;;;;;;;;5030485;28;20100;-65
2024/01/01 08:58:06;;;;;;;2.10;1.90;;;;;;;;;;5030621;28;20049;-65
2024/01/01 09:00:32;;;;;;;2.83;2.38;;;;;;;;;;5028853;28;20029;-65
2024/01/01 09:02:58;;;;;;;2.58;2.00;;;;;;;;;;5030677;28;20036;-65
2024/01/01 09:05:25;;;;;;;2.00;1.80;;;;;;;;;;5030737;28;20013;-65
2024/01/01 09:07:51;;;;;;;1.98;1.75;;;;;;;;;;5029634;28;20502;-65
2024/01/01 09:10:17;;;;;;;2.17;1.98;;;;;;;;;;5031525;28;20053;-65
2024/01/01 09:12:43;;;;;;;2.10;1.90;;;;;;;;;;5032509;28;20033;-65
2024/01/01 09:15:09;;;;;;;2.28;1.90;;;;;;;;;;5033853;28;20499;-65
2024/01/01 09:17:35;;;;;;;2.03;1.80;;;;;;;;;;5036311;28;20036;-65
2024/01/01 09:20:03;;;;;;;2.40;1.92;;;;;;;;;;5035781;28;20037;-65
2024/01/01 09:22:29;;;;;;;2.17;1.98;;;;;;;;;;5034069;28;20115;-65
2024/01/01 09:24:55;;;;;;;2.42;1.83;;;;;;;;;;5031520;28;20021;-65
2024/01/01 09:27:21;;;;;;;2.42;1.90;;;;;;;;;;5031568;28;20024;-65
2024/01/01 09:29:47;;;;;;;2.30;2.00;;;;;;;;;;5031333;28;20032;-65
2024/01/01 09:32:13;;;;;;;2.70;2.00;;;;;;;;;;5031511;28;20025;-65
2024/01/01 09:34:40;;;;;;;2.22;1.67;;;;;;;;;;5031814;28;20399;-65
2024/01/01 09:37:06;;;;;;;2.58;1.90;;;;;;;;;;5031179;28;20100;-65
2024/01/01 09:39:32;;;;;;;2.22;1.92;;;;;;;;;;5031210;28;20033;-65
2024/01/01 09:42:01;;;;;;;2.00;1.75;;;;;;;;;;5031261;28;20029;-65
2024/01/01 09:44:27;;;;;;;2.22;1.83;;;;;;;;;;5031388;28;20021;-65
2024/01/01 09:46:53;;;;;;;1.60;1.50;;;;;;;;;;5031492;28;20064;-65
2024/01/01 09:49:19;;;;;;;2.38;1.92;;;;;;;;;;5031520;28;20018;-65
2024/01/01 09:51:45;;;;;;;1.95;1.75;;;;;;;;;;5030006;28;20032;-64
2024/01/01 09:54:11;;;;;;;4.22;1.63;;;;;;;;;;5031403;28;20029;-64
2024/01/01 09:56:37;;;;;;;2.35;1.88;;;;;;;;;;5031368;28;20053;-64
2024/01/01 09:59:03;;;;;;;2.35;1.83;;;;;;;;;;5031404;28;20035;-65
2024/01/01 10:01:31;;;;;;;1.83;1.73;;;;;;;;;;5031199;28;20037;-64
2024/01/01 10:04:02;;;;;;;2.35;1.90;;;;;;;;;;5031535;28;20413;-64
2024/01/01 10:06:29;;;;;;;2.15;1.95;;;;;;;;;;5031281;28;20024;-65
2024/01/01 10:09:05;;;;;;;1.90;1.60;;;;;;;;;;5031509;28;20038;-65
2024/01/01 10:11:31;;;;;;;1.73;1.63;;;;;;;;;;5030928;28;20056;-65
2024/01/01 10:14:03;;;;;;;2.03;1.83;;;;;;;;;;5031278;28;20030;-65
2024/01/01 10:16:30;;;;;;;1.55;1.15;;;;;;;;;;5031101;28;20021;-65
2024/01/01 10:18:57;;;;;;;2.20;1.92;;;;;;;;;;5031260;28;20052;-65
2024/01/01 10:21:28;;;;;;;1.63;1.52;;;;;;;;;;5030854;28;20659;-65
2024/01/01 10:23:54;;;;;;;2.33;1.73;;;;;;;;;;5030955;28;20014;-65
2024/01/01 10:26:20;;;;;;;2.13;1.67;;;;;;;;;;5030924;28;20022;-66
2024/01/01 10:28:46;;;;;;;2.58;1.80;;;;;;;;;;5031001;28;20084;-65
2024/01/01 10:31:13;;;;;;;2.40;1.75;;;;;;;;;;5030795;28;20029;-65
2024/01/01 10:33:41;;;;;;;2.15;1.95;;;;;;;;;;5030987;28;20080;-65
2024/01/01 10:36:07;;;;;;;2.60;1.77;;;;;;;;;;5030829;28;20056;-65
2024/01/01 10:38:34;;;;;;;1.60;1.50;;;;;;;;;;5030903;28;20026;-65
2024/01/01 10:41:00;;;;;;;1.85;1.65;;;;;;;;;;5030893;28;20112;-65
2024/01/01 10:43:27;;;;;;;2.40;1.52;;;;;;;;;;5030861;28;20025;-65
2024/01/01 10:46:06;;;;;;;2.33;1.80;;;;;;;;;;5030996;28;20053;-65
2024/01/01 10:48:32;;;;;;;2.63;1.90;;;;;;;;;;5031177;28;20426;-65
2024/01/01 10:51:17;;;;;;;2.85;1.50;;;;;;;;;;5032858;28;20026;-65
2024/01/01 10:53:55;;;;;;;3.03;1.65;;;;;;;;;;5034179;28;20056;-65
2024/01/01 10:56:44;;;;;;;1.70;1.60;;;;;;;;;;5032829;28;20033;-65
2024/01/01 10:59:16;;;;;;;3.42;1.52;;;;;;;;;;5029291;28;20068;-65
2024/01/01 11:01:42;;;;;;;2.85;1.73;;;;;;;;;;5034578;28;20033;-65
2024/01/01 11:04:09;;;;;;;2.65;1.70;;;;;;;;;;5034431;28;20423;-65
2024/01/01 11:06:39;;;;;;;2.55;1.60;;;;;;;;;;5034825;28;20394;-65
2024/01/01 11:09:20;;;;;;;2.17;1.70;;;;;;;;;;5034308;28;20018;-65
2024/01/01 11:11:47;;;;;;;2.85;2.03;;;;;;;;;;5033783;28;20044;-65
2024/01/01 11:14:23;;;;;;;3.05;1.63;;;;;;;;;;5034058;28;20441;-65
2024/01/01 11:16:53;;;;;;;1.90;1.40;;;;;;;;;;5034069;28;20022;-65
2024/01/01 11:19:37;;;;;;;3.78;1.70;;;;;;;;;;5032598;28;20052;-65
2024/01/01 11:22:19;;;;;;;2.35;1.67;;;;;;;;;;5033520;28;20044;-65
2024/01/01 11:24:45;;;;;;;1.85;1.42;;;;;;;;;;5033788;28;20475;-65
2024/01/01 11:27:32;;;;;;;1.90;1.60;;;;;;;;;;5033440;28;20072;-65
2024/01/01 11:30:01;;;;;;;1.90;1.55;;;;;;;;;;5033246;28;20076;-66
2024/01/01 11:32:27;;;;;;;2.25;1.35;;;;;;;;;;5033558;28;20165;-65
2024/01/01 11:35:07;;;;;;;2.70;2.08;;;;;;;;;;5034022;28;20028;-66
2024/01/01 11:37:33;;;;;;;2.22;1.30;;;;;;;;;;5033337;28;20030;-65
2024/01/01 11:40:00;;;;;;;1.50;1.40;;;;;;;;;;5033308;28;20502;-65
2024/01/01 11:42:26;;;;;;;2.83;1.40;;;;;;;;;;5031751;28;20026;-65
2024/01/01 11:45:04;;;;;;;2.53;1.30;;;;;;;;;;5033120;28;20645;-65
2024/01/01 11:47:30;;;;;;;2.13;1.33;;;;;;;;;;5033453;28;20442;-65
2024/01/01 11:49:57;;;;;;;1.88;1.45;;;;;;;;;;5033033;28;20025;-65
2024/01/01 11:52:23;;;;;;;1.58;1.45;;;;;;;;;;5033185;28;20057;-65
2024/01/01 11:54:49;;;;;;;1.88;1.30;;;;;;;;;;5033112;28;20427;-65
2024/01/01 11:57:15;;;;;;;1.13;0.95;;;;;;;;;;5032975;28;20029;-66
2024/01/01 11:59:41;;;;;;;1.42;1.20;;;;;;;;;;5032322;28;20030;-65
2024/01/01 12:02:08;;;;;;;2.35;1.40;;;;;;;;;;5033028;28;20029;-65
2024/01/01 12:04:36;;;;;;;2.10;1.70;;;;;;;;;;5033036;28;20387;-65
2024/01/01 12:07:02;;;;;;;1.67;1.40;;;;;;;;;;5032791;28;20040;-65
2024/01/01 12:09:28;;;;;;;1.85;1.50;;;;;;;;;;5032791;28;20434;-65
2024/01/01 12:12:02;;;;;;;2.33;1.30;;;;;;;;;;5032684;28;20032;-65
2024/01/01 12:14:29;;;;;;;0.85;0.80;;;;;;;;;;5032885;28;20037;-65
2024/01/01 12:16:57;;;;;;;1.15;1.00;;;;;;;;;;5032652;28;20025;-65
2024/01/01 12:19:23;;;;;;;1.40;1.20;;;;;;;;;;5032572;28;20108;-65
2024/01/01 12:21:51;;;;;;;2.05;1.17;;;;;;;;;;5031190;28;20087;-65
2024/01/01 12:24:18;;;;;;;3.30;1.33;;;;;;;;;;5032697;28;20037;-65
2024/01/01 12:26:51;;;;;;;1.73;1.10;;;;;;;;;;5032589;28;20021;-65
2024/01/01 12:29:21;;;;;;;2.50;1.30;;;;;;;;;;5032609;28;20017;-65
2024/01/01 12:31:48;;;;;;;2.20;1.17;;;;;;;;;;5032630;28;20025;-65
2024/01/01 12:34:15;;;;;;;1.35;1.17;;;;;;;;;;5032778;28;20022;-65
2024/01/01 12:36:43;;;;;;;1.13;0.90;;;;;;;;;;5032857;28;20379;-66
2024/01/01 12:39:09;;;;;;;2.72;1.42;;;;;;;;;;5036563;28;20036;-66
2024/01/01 12:41:35;;;;;;;2.22;1.40;;;;;;;;;;5032775;28;20111;-65
2024/01/01 12:44:01;;;;;;;1.45;1.27;;;;;;;;;;5032431;28;20403;-65
2024/01/01 12:46:27;;;;;;;2.53;1.20;;;;;;;;;;5031952;28;20538;-65
2024/01/01 12:48:53;;;;;;;2.55;1.50;;;;;;;;;;5032021;28;20025;-65
2024/01/01 12:51:23;;;;;;;2.38;1.70;;;;;;;;;;5030300;28;20028;-66
2024/01/01 12:53:53;;;;;;;1.80;1.30;;;;;;;;;;5031807;28;20021;-65
2024/01/01 12:56:22;;;;;;;1.67;1.17;;;;;;;;;;5031790;28;20437;-65
2024/01/01 12:58:49;;;;;;;1.33;0.90;;;;;;;;;;5031915;28;20421;-65
2024/01/01 13:01:15;;;;;;;1.50;1.20;;;;;;;;;;5031467;28;20029;-65
2024/01/01 13:03:43;;;;;;;1.67;1.17;;;;;;;;;;5032066;28;20434;-65
2024/01/01 13:06:10;;;;;;;1.33;1.00;;;;;;;;;;5031795;28;20035;-64
2024/01/01 13:08:37;;;;;;;1.85;1.10;;;;;;;;;;5048888;22;20053;-69
2024/01/01 13:11:06;;;;;;;1.10;0.95;;;;;;;;;;5044716;28;20029;-70
2024/01/01 13:13:34;;;;;;;1.77;1.08;;;;;;;;;;5030884;28;20025;-70
2024/01/01 13:16:03;;;;;;;1.38;0.80;;;;;;;;;;5031190;28;20113;-70
2024/01/01 13:18:29;;;;;;;1.73;0.82;;;;;;;;;;5031012;28;20045;-70
2024/01/01 13:20:56;;;;;;;1.15;0.90;;;;;;;;;;5030806;28;20072;-70
2024/01/01 13:23:22;;;;;;;1.85;1.30;;;;;;;;;;5031050;28;20360;-70
2024/01/01 13:25:49;;;;;;;1.92;1.27;;;;;;;;;;5030852;28;20021;-70
2024/01/01 13:28:24;;;;;;;3.17;1.30;;;;;;;;;;5030834;28;20017;-70
2024/01/01 13:30:50;;;;;;;1.65;1.10;;;;;;;;;;5030827;28;20513;-70
2024/01/01 13:33:17;;;;;;;2.05;1.40;;;;;;;;;;5030882;28;20018;-70
2024/01/01 13:35:43;;;;;;;1.55;1.20;;;;;;;;;;5030756;28;20021;-70
2024/01/01 13:38:09;;;;;;;2.50;1.08;;;;;;;;;;5030817;28;20399;-70
2024/01/01 13:40:35;;;;;;;2.60;1.23;;;;;;;;;;5030261;28;20462;-70
2024/01/01 13:43:01;;;;;;;1.40;0.93;;;;;;;;;;5030782;28;20483;-70
2024/01/01 13:45:27;;;;;;;0.98;0.80;;;;;;;;;;5030903;28;20018;-70
2024/01/01 13:47:53;;;;;;;1.80;1.10;;;;;;;;;;5030706;28;20368;-70
2024/01/01 13:50:19;;;;;;;2.35;1.08;;;;;;;;;;5030569;28;20022;-69
2024/01/01 13:52:45;;;;;;;1.13;0.98;;;;;;;;;;5030665;28;20025;-70
2024/01/01 13:55:16;;;;;;;1.90;0.90;;;;;;;;;;5030782;28;20030;-70
2024/01/01 13:57:43;;;;;;;1.25;1.05;;;;;;;;;;5030864;28;20033;-70
2024/01/01 14:00:09;;;;;;;1.13;0.90;;;;;;;;;;5030687;28;20116;-70
2024/01/01 14:02:38;;;;;;;1.38;0.70;;;;;;;;;;5030781;28;20049;-70
2024/01/01 14:05:05;;;;;;;1.05;0.73;;;;;;;;;;5030694;28;20700;-70
2024/01/01 14:07:34;;;;;;;2.10;0.93;;;;;;;;;;5030383;28;20037;-70
2024/01/01 14:10:00;;;;;;;1.45;0.82;;;;;;;;;;5030368;28;20023;-70
2024/01/01 14:12:27;;;;;;;1.83;0.95;;;;;;;;;;5030877;28;20108;-70
2024/01/01 14:14:53;;;;;;;2.35;1.05;;;;;;;;;;5030573;28;20029;-69
2024/01/01 14:17:19;;;;;;;1.85;1.10;;;;;;;;;;5030783;28;20026;-71
2024/01/01 14:19:45;;;;;;;3.28;1.13;;;;;;;;;;5030823;28;20041;-70
2024/01/01 14:22:12;;;;;;;2.30;0.70;;;;;;;;;;5030414;28;20033;-70
2024/01/01 14:24:38;;;;;;;1.30;1.08;;;;;;;;;;5037684;28;20029;-70
2024/01/01 14:27:09;;;;;;;0.80;0.50;;;;;;;;;;5034548;28;20024;-70
2024/01/01 14:29:35;;;;;;;1.42;0.95;;;;;;;;;;5034082;28;20028;-70
2024/01/01 14:32:01;;;;;;;1.25;0.90;;;;;;;;;;5034596;28;20060;-70
2024/01/01 14:34:28;;;;;;;1.13;0.70;;;;;;;;;;5034207;28;20079;-70
2024/01/01 14:36:54;;;;;;;0.95;0.45;;;;;;;;;;5033552;28;20026;-70
2024/01/01 14:39:20;;;;;;;1.13;0.60;;;;;;;;;;5032719;28;20113;-70
2024/01/01 14:41:47;;;;;;;1.08;0.73;;;;;;;;;;5033772;28;20108;-70